Tel Aviv International

Airport
ICAO code: 
LLBG
Summary
ICAO Region: 
MID
Territory: 
Location: 
Lod,
Coordinates: 
Aerial View: 
32° 0' 41.034" N, 34° 53' 12.119" E
Metar
Observation
LLBG 051820Z 15009KT 9999 SCT035 16/12 Q1017 NOSIG
Station
Ben-Gurion International Airport
Date/Time
2021-12-05 18:20:00
Wind direction
150°
Wind speed
09 kts
Lowest cloud amount
scattered clouds
Temperature
16°C
Dew point
12°C
Humidity
77%
QNH
1017 hPa
Weather condition
n/a

Description

Ben Gurion International Airport‎, also referred to by its Hebrew acronym Natbag, is located near the city of Lod, 15 km southeast of Tel Aviv.

Climatology

Dry-summer subtropical ”Mediterranean" climate (Köppen climate classification Csa) - characterized by hot, dry summers and mild winters. During the summer, subtropical high pressure cells dominate, making rainfall unlikely except for the occasional thunderstorm. In the winter, periodic storms bring rain (snow at higher elevations).

Runways

Designator Length Width Surface Rops
3/21 1780 45 ASP Yes/Yes
12/30 3112 45 ASP Yes/Yes
8/26 3657 45 ASP Yes/Yes
Airport map: 
Aerial View: 

Accidents and Serious Incidents at or in the vicinity of LLBG

SKYbrary Partners:

Safety knowledge contributed by: